Costa Romantica — IBCR — position and weather

sailwx.info

Track history (hours):
 
Tides and Currents Weather Stations Pressure Air Temp Water Temp Dewpoint Dewpoint Depression Visibility Wind Speed Wind Dir Waves Ship Positions

Costa Romantica

Last reported at 2018-May-27 08:01 UTC. Time now 2018-May-27 08:12 UTC.
Position N 35°06' E 139°42'.

Length 219 m; draft 7.7 m.

Type: Ship. MMSI: 247817000.

Date/timePositionNaut miles runAvg speedWind from/ knotsBaromVisibWave heightAir tempDewpointWater temp
2018-May-27 08:01N 35°06' E 139°42'713.7
2018-May-27 07:30N 35°12' E 139°46'611.7
2018-May-27 07:01N 35°18' E 139°44'713.4
2018-May-27 06:30N 35°24' E 139°42'4 7.3
2018-May-27 05:59N 35°27' E 139°39'0 0.4
2018-May-27 05:28N 35°27' E 139°39'0 0.0
2018-May-27 04:58N 35°27' E 139°39'0 0.0
2018-May-27 04:28N 35°27' E 139°39'0 0.0
2018-May-27 03:58N 35°27' E 139°39'0 0.0
2018-May-27 03:28N 35°27' E 139°39'0 0.0
2018-May-27 02:58N 35°27' E 139°39'0 0.0
2018-May-27 02:28N 35°27' E 139°39'0 0.0
2018-May-27 01:58N 35°27' E 139°39'0 0.0
2018-May-27 01:28N 35°27' E 139°39'0 0.0
2018-May-27 00:58N 35°27' E 139°39'0 0.0
2018-May-27 00:28N 35°27' E 139°39'0 0.0
2018-May-26 23:58N 35°27' E 139°39'0 0.0
2018-May-26 23:28N 35°27' E 139°39'0 0.0
2018-May-26 22:58N 35°27' E 139°39'0 0.0
2018-May-26 22:28N 35°27' E 139°39'1 3.1
2018-May-26 22:00N 35°27' E 139°41'4 7.6
2018-May-26 21:31N 35°24' E 139°43'611.9
2018-May-26 21:00N 35°18' E 139°44'612.2
2018-May-26 20:31N 35°13' E 139°47'510.2
2018-May-26 20:00N 35°08' E 139°46'4 8.0
2018-May-26 19:31N 35°04' E 139°44'5 9.0
2018-May-26 19:00N 34°60' E 139°42'510.2
2018-May-26 18:30N 34°54' E 139°42'610.7
2018-May-26 17:55N 34°50' E 139°48'  
2018-May-22 13:17N 35°02' E 129°19'517.6
2018-May-22 13:00N 35°03' E 129°13'814.7
2018-May-22 12:30N 35°06' E 129°05'2 3.6
2018-May-22 11:59N 35°07' E 129°03'0 0.0
2018-May-22 11:29N 35°07' E 129°03'0 0.0
2018-May-22 10:53N 35°07' E 129°03'0 0.0
2018-May-22 10:29N 35°07' E 129°03'0 0.0
2018-May-22 09:59N 35°07' E 129°03'0 0.0
2018-May-22 09:29N 35°07' E 129°03'0 0.0
2018-May-22 08:59N 35°07' E 129°03'0 0.0
2018-May-22 08:29N 35°07' E 129°03'0 0.0
2018-May-22 07:59N 35°07' E 129°03'0 0.0
2018-May-22 07:29N 35°07' E 129°03'0 0.0
2018-May-22 06:59N 35°07' E 129°03'0 0.0
2018-May-22 06:29N 35°07' E 129°03'0 0.0
2018-May-22 05:59N 35°07' E 129°03'0 0.0
2018-May-22 05:29N 35°07' E 129°03'0 0.0
2018-May-22 04:59N 35°07' E 129°03'0 0.0
2018-May-22 04:29N 35°07' E 129°03'0 0.0
2018-May-22 03:59N 35°07' E 129°03'0 0.0
2018-May-22 03:29N 35°07' E 129°03'0 0.0
2018-May-22 02:59N 35°07' E 129°03'0 0.0
2018-May-22 02:29N 35°07' E 129°03'0 0.0
2018-May-22 01:59N 35°07' E 129°03'0 0.0
2018-May-22 01:29N 35°07' E 129°03'0 0.0
2018-May-22 00:59N 35°07' E 129°03'0 0.0
2018-May-22 00:29N 35°07' E 129°03'0 0.0
2018-May-21 23:59N 35°07' E 129°03'0 0.0
2018-May-21 23:30N 35°07' E 129°03'3 6.4
2018-May-21 23:00N 35°05' E 129°06'611.3
2018-May-21 22:30N 35°03' E 129°13'49712.8
2018-May-20 07:35N 34°51' E 139°19'214.6
2018-May-20 07:28N 34°53' E 139°21'614.1
2018-May-20 07:00N 34°56' E 139°28'715.0
2018-May-20 06:30N 35°00' E 139°35'917.1
2018-May-20 06:00N 35°06' E 139°43'815.0
2018-May-20 05:30N 35°13' E 139°46'612.7
2018-May-20 05:00N 35°19' E 139°43'714.1
2018-May-20 04:30N 35°26' E 139°42'3 6.5
2018-May-20 04:00N 35°27' E 139°39'0 0.0
2018-May-20 03:30N 35°27' E 139°39'0 0.0
2018-May-20 03:00N 35°27' E 139°39'0 0.0
2018-May-20 02:30N 35°27' E 139°39'0 0.0
2018-May-20 02:00N 35°27' E 139°39'0 0.0
2018-May-20 01:30N 35°27' E 139°39'0 0.0
2018-May-20 01:00N 35°27' E 139°39'0 0.0
2018-May-20 00:30N 35°27' E 139°39'0 0.0
2018-May-20 00:00N 35°27' E 139°39'0 0.0
2018-May-19 23:30N 35°27' E 139°39'0 0.0
2018-May-19 23:00N 35°27' E 139°39'0 0.0
2018-May-19 22:30N 35°27' E 139°39'0 0.0
2018-May-19 22:00N 35°27' E 139°39'0 0.0
2018-May-19 21:30N 35°27' E 139°39'0 0.0
2018-May-19 21:00N 35°27' E 139°39'0 0.0
2018-May-19 20:30N 35°27' E 139°39'0 0.0
2018-May-19 20:00N 35°27' E 139°39'0 0.0
2018-May-19 19:30N 35°27' E 139°39'0 0.0
2018-May-19 19:00N 35°27' E 139°39'0 0.0
2018-May-19 18:30N 35°27' E 139°39'0 0.0
2018-May-19 18:00N 35°27' E 139°39'0 0.0
2018-May-19 17:30N 35°27' E 139°39'0 0.0
2018-May-19 17:00N 35°27' E 139°39'0 0.0
2018-May-19 16:30N 35°27' E 139°39'0 0.0
2018-May-19 16:00N 35°27' E 139°39'0 0.0
2018-May-19 15:30N 35°27' E 139°39'0 0.0
2018-May-19 15:00N 35°27' E 139°39'0 0.0
2018-May-19 14:30N 35°27' E 139°39'0 0.0
2018-May-19 14:00N 35°27' E 139°39'0 0.0
2018-May-19 13:30N 35°27' E 139°39'0 0.0
2018-May-19 13:00N 35°27' E 139°39'0 0.0
2018-May-19 12:30N 35°27' E 139°39'0 0.0
2018-May-19 12:00N 35°27' E 139°39'0 0.0
2018-May-19 11:30N 35°27' E 139°39'0 0.0
2018-May-19 11:00N 35°27' E 139°39'0 0.0
2018-May-19 10:30N 35°27' E 139°39'0 0.0
2018-May-19 10:00N 35°27' E 139°39'0 0.0
2018-May-19 09:30N 35°27' E 139°39'0 0.0
2018-May-19 09:00N 35°27' E 139°39'0 0.0
2018-May-19 08:30N 35°27' E 139°39'0 0.0
2018-May-19 08:00N 35°27' E 139°39'0 0.0
2018-May-19 07:30N 35°27' E 139°39'0 0.0
2018-May-19 07:00N 35°27' E 139°39'0 0.0
2018-May-19 06:30N 35°27' E 139°39'0 0.0
2018-May-19 06:00N 35°27' E 139°39'0 0.0
2018-May-19 05:30N 35°27' E 139°39'0 0.0
2018-May-19 05:00N 35°27' E 139°39'0 0.0
2018-May-19 04:30N 35°27' E 139°39'0 0.0
2018-May-19 04:00N 35°27' E 139°39'0 0.0
2018-May-19 03:30N 35°27' E 139°39'0 0.0
2018-May-19 03:00N 35°27' E 139°39'0 0.0
2018-May-19 02:30N 35°27' E 139°39'0 0.0
2018-May-19 02:00N 35°27' E 139°39'0 0.0
2018-May-19 01:30N 35°27' E 139°39'0 0.0
2018-May-19 01:00N 35°27' E 139°39'0 0.0
2018-May-19 00:30N 35°27' E 139°39'0 0.0
2018-May-19 00:00N 35°27' E 139°39'0 0.0
2018-May-18 23:30N 35°27' E 139°39'0 0.0
2018-May-18 23:00N 35°27' E 139°39'0 0.0
2018-May-18 22:30N 35°27' E 139°39'0 0.0
2018-May-18 22:00N 35°27' E 139°39'1 2.8
2018-May-18 21:30N 35°27' E 139°41'4 8.7
2018-May-18 21:00N 35°23' E 139°43'510.3
2018-May-18 20:30N 35°18' E 139°44'611.7
2018-May-18 20:00N 35°13' E 139°47'510.8
2018-May-18 19:30N 35°08' E 139°46'611.5
2018-May-18 18:59N 35°03' E 139°41'611.7
2018-May-18 18:30N 34°60' E 139°36'612.1
2018-May-18 18:00N 34°55' E 139°30'713.5
2018-May-18 17:27N 34°51' E 139°23'  
Track history (hours):
 
Tides and Currents Weather Stations Pressure Air Temp Water Temp Dewpoint Dewpoint Depression Visibility Wind Speed Wind Dir Waves Ship Positions

Costa Romantica

Last reported at 2018-May-27 08:01 UTC. Time now 2018-May-27 08:12 UTC.
Position N 35°06' E 139°42'.

Length 219 m; draft 7.7 m.

Type: Ship. MMSI: 247817000.

Date/timePositionNaut miles runAvg speedWind from/ knotsBaromVisibWave heightAir tempDewpointWater temp
2018-May-27 08:01N 35°06' E 139°42'713.7
2018-May-27 07:30N 35°12' E 139°46'611.7
2018-May-27 07:01N 35°18' E 139°44'713.4
2018-May-27 06:30N 35°24' E 139°42'4 7.3
2018-May-27 05:59N 35°27' E 139°39'0 0.4
2018-May-27 05:28N 35°27' E 139°39'0 0.0
2018-May-27 04:58N 35°27' E 139°39'0 0.0
2018-May-27 04:28N 35°27' E 139°39'0 0.0
2018-May-27 03:58N 35°27' E 139°39'0 0.0
2018-May-27 03:28N 35°27' E 139°39'0 0.0
2018-May-27 02:58N 35°27' E 139°39'0 0.0
2018-May-27 02:28N 35°27' E 139°39'0 0.0
2018-May-27 01:58N 35°27' E 139°39'0 0.0
2018-May-27 01:28N 35°27' E 139°39'0 0.0
2018-May-27 00:58N 35°27' E 139°39'0 0.0
2018-May-27 00:28N 35°27' E 139°39'0 0.0
2018-May-26 23:58N 35°27' E 139°39'0 0.0
2018-May-26 23:28N 35°27' E 139°39'0 0.0
2018-May-26 22:58N 35°27' E 139°39'0 0.0
2018-May-26 22:28N 35°27' E 139°39'1 3.1
2018-May-26 22:00N 35°27' E 139°41'4 7.6
2018-May-26 21:31N 35°24' E 139°43'611.9
2018-May-26 21:00N 35°18' E 139°44'612.2
2018-May-26 20:31N 35°13' E 139°47'510.2
2018-May-26 20:00N 35°08' E 139°46'4 8.0
2018-May-26 19:31N 35°04' E 139°44'5 9.0
2018-May-26 19:00N 34°60' E 139°42'510.2
2018-May-26 18:30N 34°54' E 139°42'610.7
2018-May-26 17:55N 34°50' E 139°48'  
2018-May-22 13:17N 35°02' E 129°19'517.6
2018-May-22 13:00N 35°03' E 129°13'814.7
2018-May-22 12:30N 35°06' E 129°05'2 3.6
2018-May-22 11:59N 35°07' E 129°03'0 0.0
2018-May-22 11:29N 35°07' E 129°03'0 0.0
2018-May-22 10:53N 35°07' E 129°03'0 0.0
2018-May-22 10:29N 35°07' E 129°03'0 0.0
2018-May-22 09:59N 35°07' E 129°03'0 0.0
2018-May-22 09:29N 35°07' E 129°03'0 0.0
2018-May-22 08:59N 35°07' E 129°03'0 0.0
2018-May-22 08:29N 35°07' E 129°03'0 0.0
2018-May-22 07:59N 35°07' E 129°03'0 0.0
2018-May-22 07:29N 35°07' E 129°03'0 0.0
2018-May-22 06:59N 35°07' E 129°03'0 0.0
2018-May-22 06:29N 35°07' E 129°03'0 0.0
2018-May-22 05:59N 35°07' E 129°03'0 0.0
2018-May-22 05:29N 35°07' E 129°03'0 0.0
2018-May-22 04:59N 35°07' E 129°03'0 0.0
2018-May-22 04:29N 35°07' E 129°03'0 0.0
2018-May-22 03:59N 35°07' E 129°03'0 0.0
2018-May-22 03:29N 35°07' E 129°03'0 0.0
2018-May-22 02:59N 35°07' E 129°03'0 0.0
2018-May-22 02:29N 35°07' E 129°03'0 0.0
2018-May-22 01:59N 35°07' E 129°03'0 0.0
2018-May-22 01:29N 35°07' E 129°03'0 0.0
2018-May-22 00:59N 35°07' E 129°03'0 0.0
2018-May-22 00:29N 35°07' E 129°03'0 0.0
2018-May-21 23:59N 35°07' E 129°03'0 0.0
2018-May-21 23:30N 35°07' E 129°03'3 6.4
2018-May-21 23:00N 35°05' E 129°06'611.3
2018-May-21 22:30N 35°03' E 129°13'49712.8
2018-May-20 07:35N 34°51' E 139°19'214.6
2018-May-20 07:28N 34°53' E 139°21'614.1
2018-May-20 07:00N 34°56' E 139°28'715.0
2018-May-20 06:30N 35°00' E 139°35'917.1
2018-May-20 06:00N 35°06' E 139°43'815.0
2018-May-20 05:30N 35°13' E 139°46'612.7
2018-May-20 05:00N 35°19' E 139°43'714.1
2018-May-20 04:30N 35°26' E 139°42'3 6.5
2018-May-20 04:00N 35°27' E 139°39'0 0.0
2018-May-20 03:30N 35°27' E 139°39'0 0.0
2018-May-20 03:00N 35°27' E 139°39'0 0.0
2018-May-20 02:30N 35°27' E 139°39'0 0.0
2018-May-20 02:00N 35°27' E 139°39'0 0.0
2018-May-20 01:30N 35°27' E 139°39'0 0.0
2018-May-20 01:00N 35°27' E 139°39'0 0.0
2018-May-20 00:30N 35°27' E 139°39'0 0.0
2018-May-20 00:00N 35°27' E 139°39'0 0.0
2018-May-19 23:30N 35°27' E 139°39'0 0.0
2018-May-19 23:00N 35°27' E 139°39'0 0.0
2018-May-19 22:30N 35°27' E 139°39'0 0.0
2018-May-19 22:00N 35°27' E 139°39'0 0.0
2018-May-19 21:30N 35°27' E 139°39'0 0.0
2018-May-19 21:00N 35°27' E 139°39'0 0.0
2018-May-19 20:30N 35°27' E 139°39'0 0.0
2018-May-19 20:00N 35°27' E 139°39'0 0.0
2018-May-19 19:30N 35°27' E 139°39'0 0.0
2018-May-19 19:00N 35°27' E 139°39'0 0.0
2018-May-19 18:30N 35°27' E 139°39'0 0.0
2018-May-19 18:00N 35°27' E 139°39'0 0.0
2018-May-19 17:30N 35°27' E 139°39'0 0.0
2018-May-19 17:00N 35°27' E 139°39'0 0.0
2018-May-19 16:30N 35°27' E 139°39'0 0.0
2018-May-19 16:00N 35°27' E 139°39'0 0.0
2018-May-19 15:30N 35°27' E 139°39'0 0.0
2018-May-19 15:00N 35°27' E 139°39'0 0.0
2018-May-19 14:30N 35°27' E 139°39'0 0.0
2018-May-19 14:00N 35°27' E 139°39'0 0.0
2018-May-19 13:30N 35°27' E 139°39'0 0.0
2018-May-19 13:00N 35°27' E 139°39'0 0.0
2018-May-19 12:30N 35°27' E 139°39'0 0.0
2018-May-19 12:00N 35°27' E 139°39'0 0.0
2018-May-19 11:30N 35°27' E 139°39'0 0.0
2018-May-19 11:00N 35°27' E 139°39'0 0.0
2018-May-19 10:30N 35°27' E 139°39'0 0.0
2018-May-19 10:00N 35°27' E 139°39'0 0.0
2018-May-19 09:30N 35°27' E 139°39'0 0.0
2018-May-19 09:00N 35°27' E 139°39'0 0.0
2018-May-19 08:30N 35°27' E 139°39'0 0.0
2018-May-19 08:00N 35°27' E 139°39'0 0.0
2018-May-19 07:30N 35°27' E 139°39'0 0.0
2018-May-19 07:00N 35°27' E 139°39'0 0.0
2018-May-19 06:30N 35°27' E 139°39'0 0.0
2018-May-19 06:00N 35°27' E 139°39'0 0.0
2018-May-19 05:30N 35°27' E 139°39'0 0.0
2018-May-19 05:00N 35°27' E 139°39'0 0.0
2018-May-19 04:30N 35°27' E 139°39'0 0.0
2018-May-19 04:00N 35°27' E 139°39'0 0.0
2018-May-19 03:30N 35°27' E 139°39'0 0.0
2018-May-19 03:00N 35°27' E 139°39'0 0.0
2018-May-19 02:30N 35°27' E 139°39'0 0.0
2018-May-19 02:00N 35°27' E 139°39'0 0.0
2018-May-19 01:30N 35°27' E 139°39'0 0.0
2018-May-19 01:00N 35°27' E 139°39'0 0.0
2018-May-19 00:30N 35°27' E 139°39'0 0.0
2018-May-19 00:00N 35°27' E 139°39'0 0.0
2018-May-18 23:30N 35°27' E 139°39'0 0.0
2018-May-18 23:00N 35°27' E 139°39'0 0.0
2018-May-18 22:30N 35°27' E 139°39'0 0.0
2018-May-18 22:00N 35°27' E 139°39'1 2.8
2018-May-18 21:30N 35°27' E 139°41'4 8.7
2018-May-18 21:00N 35°23' E 139°43'510.3
2018-May-18 20:30N 35°18' E 139°44'611.7
2018-May-18 20:00N 35°13' E 139°47'510.8
2018-May-18 19:30N 35°08' E 139°46'611.5
2018-May-18 18:59N 35°03' E 139°41'611.7
2018-May-18 18:30N 34°60' E 139°36'612.1
2018-May-18 18:00N 34°55' E 139°30'713.5
2018-May-18 17:27N 34°51' E 139°23'  

Dump ship's entire track history